Ludington, MI

06:13 PM EDT del 28 Agosto 2015 (GMT -0400)
Mason County | | Change Station
CLOSE
Current Station
Aeroporto
Location: Ludington,
Altitudine: 646 ft
Stazioni meteo nelle vicinanze

Alt. 646 ft 43.96 °N, 86.41 °W | Updated 18 minutes ago

Sereno
Sereno
71 °F
Sembra 71 °F
N
6
Vento Variabile Vento da SO

Oggi
Massima -- | Minima -- °F
--% Possibilità di precip.
Ieri
Massima -- | Minima -- °F
Precip. -- in
7:04 AM 8:28 PM
Gobba a ponente, 99% visible
Pressione 30.11 in
Visibilità 10.0 miglia
Nuvole Sereno
Punto di rugiada 63 °F
Umidità 76%
Piovosità 0.00 in
Spessore del manto nevoso Non disponibile.
Raggi UV 2 fuori da 12
Polline 8.80 fuori da 12
Qualità dell'aria Non disponibile.
Flu Activity Non disponibile.
METAR KLDM 282155Z AUTO 23005KT 10SM CLR 22/17 A3011 RMK AO2 T02160172
Pressione 30.11 in
Visibilità 10.0 miglia
Nuvole Sereno
Punto di rugiada 63 °F
Umidità 76%
Piovosità 0.00 in
Spessore del manto nevoso Non disponibile.
Raggi UV 2 fuori da 12
Polline 8.80 fuori da 12
Qualità dell'aria Non disponibile.
Flu Activity Non disponibile.
METAR KLDM 282155Z AUTO 23005KT 10SM CLR 22/17 A3011 RMK AO2 T02160172

10-Day Weather Forecast

×

Almanac

Astronomia

Aug. 28, 2015 Alba Tramonto
Ora attuale
Crepuscolo civile
Crepuscolo nautico
Crepuscolo astronomico
Luna
Estensione della luce visibile
Lunghezza del giorno
Tomorrow will be .
, % of the Moon is Illuminated

Gli estremi di oggi

State Highs State Lows

Community

WunderPhotos

Upload Photos

1,850,515 foto caricate!

WunderBlogs® & News

Nearby

Qualità dell'aria

  Qualità dell'aria Indice AQ Inquinante
Not available.

Profondità neve

Stazione Profondità Altitudine

Attività sismica

Città  Distanza Mag. Data & Ora
Minimo Magnitudo Mostrato è 2.5.

Temperature delle acque costiere

Località Temperatura

Stations

Stazioni meteo nelle vicinanze

Ubicazione della stazione Temp. Raffreddamento del vento Punto di rugiada Umidità Vento Precip. Alt. Aggiornato Tipo